Main page
METAR-TAF:

METAR-TAF

Airports :

Lechfeld Air Base

Lechfeld, Germany

latitude: 48-11N, longitude: 010-52E, elevation: 555 m

Current weather observation

The report was made 48 minutes ago, at 18:20 UTC
Wind 4 kt from the South/Southwest
Temperature 6°C
Humidity 100%
Pressure 1031 hPa
Visibility 10 km or more
Few clouds at a height of 11000 ft

METAR: ETSL 131820Z 21004KT 9999 FEW110 06/06 Q1031 BLU+

Time: 20:08 (19:08 UTC)

Forecast

The report was made 3 hours and 8 minutes ago, at 16:00 UTC
Forecast valid from 13 at 16 UTC to 13 at 24 UTC
Wind 5 kt from the Southwest
Visibility 10 km or more
Scattered clouds at a height of 2000 ft
Broken clouds at a height of 6000 ft
Temporary
from 13 at 16 UTC to 13 at 18 UTC
Wind 10 kt from the Southwest
Visibility: 1600 m
Broken clouds at a height of 2000 ft
Overcast at a height of 3000 ft
light rain

TAF: ETSL 131600Z 1316/1324 22005KT 9999 NSW SCT020 BKN060 TEMPO 1316/1318 23010KT 5000 -RA BKN020 OVC030 CANCEL 1600 BY ETGL

Weather observations and forecasts of more than 4000 airports (METAR and TAF reports).

The available stations are represented by yellow and red dots on the map.

Hover mouse over dot to see the name of the station.

Then click to see weather observations and forecasts.

To change the map : click on the green buttons with a black cross to zoom in, on the green button with a dash to zoom out, or on the green arrows for adjacent maps.


METAR-TAF: